Time;durP1;ratioP1;P1;durP2;ratioP2;P2;SDS_P1;SDS_P2;PMS_P1;PMS_P2;Temp;Humidity;BMP_temperature;BMP_pressure;BME280_temperature;BME280_humidity;BME280_pressure;Samples;Min_cycle;Max_cycle;Signal;HPM_P1;HPM_P2
2023/12/30 00:01:37;;;;;;;6.65;3.40;;;-0.30;99.90;;;;;;5060734;28;20036;-80
2023/12/30 00:04:03;;;;;;;7.15;3.90;;;-0.30;99.90;;;;;;5056959;28;20438;-80
2023/12/30 00:06:29;;;;;;;6.05;3.70;;;-0.30;99.90;;;;;;5040373;28;20025;-81
2023/12/30 00:08:54;;;;;;;6.38;3.35;;;-0.30;99.90;;;;;;5078759;28;20036;-80
2023/12/30 00:11:20;;;;;;;7.60;3.60;;;-0.30;99.90;;;;;;5064776;28;20121;-80
2023/12/30 00:13:46;;;;;;;7.20;3.42;;;-0.30;99.90;;;;;;5056258;28;20043;-81
2023/12/30 00:16:13;;;;;;;8.23;4.15;;;-0.20;99.90;;;;;;5088481;28;20047;-80
2023/12/30 00:18:39;;;;;;;8.73;3.58;;;-0.20;99.90;;;;;;5097414;28;20034;-80
2023/12/30 00:21:04;;;;;;;8.68;3.58;;;-0.20;99.90;;;;;;5114263;28;20095;-80
2023/12/30 00:23:30;;;;;;;6.82;3.10;;;-0.20;99.90;;;;;;5100087;28;20027;-80
2023/12/30 00:25:56;;;;;;;4.28;2.60;;;-0.20;99.90;;;;;;5094944;28;20024;-80
2023/12/30 00:28:21;;;;;;;6.28;2.70;;;-0.20;99.90;;;;;;5059622;28;20484;-80
2023/12/30 00:30:47;;;;;;;5.95;3.65;;;-0.30;99.90;;;;;;5076778;28;20028;-80
2023/12/30 00:33:13;;;;;;;7.72;3.60;;;-0.30;99.90;;;;;;5076730;28;20036;-80
2023/12/30 00:35:40;;;;;;;10.52;4.38;;;-0.30;99.90;;;;;;5076455;28;20028;-80
2023/12/30 00:38:06;;;;;;;11.27;4.80;;;-0.30;99.90;;;;;;5060100;28;20400;-80
2023/12/30 00:40:31;;;;;;;9.93;4.38;;;-0.40;99.90;;;;;;5060068;28;20027;-80
2023/12/30 00:42:57;;;;;;;8.15;4.32;;;-0.40;99.90;;;;;;5094288;28;20016;-80
2023/12/30 00:45:23;;;;;;;8.88;3.60;;;-0.50;99.90;;;;;;5064928;28;20028;-80
2023/12/30 00:47:48;;;;;;;7.07;4.00;;;-0.50;99.90;;;;;;5057550;28;20024;-80
2023/12/30 00:50:14;;;;;;;7.38;3.70;;;-0.50;99.90;;;;;;5059746;28;20607;-80
2023/12/30 00:52:43;;;;;;;6.28;3.40;;;-0.50;99.90;;;;;;5095943;28;20029;-80
2023/12/30 00:55:08;;;;;;;7.63;4.03;;;-0.50;99.90;;;;;;5077010;28;20441;-80
2023/12/30 00:57:34;;;;;;;7.50;3.80;;;-0.50;99.90;;;;;;5059390;28;20070;-80
2023/12/30 01:00:00;;;;;;;6.65;3.50;;;-0.50;99.90;;;;;;5094344;28;20025;-80
2023/12/30 01:02:25;;;;;;;6.20;3.50;;;-0.50;99.90;;;;;;5061048;28;20374;-80
2023/12/30 01:04:51;;;;;;;6.78;3.95;;;-0.50;99.90;;;;;;5039188;28;20508;-80
2023/12/30 01:07:16;;;;;;;5.38;3.00;;;-0.60;99.90;;;;;;5039428;28;20025;-80
2023/12/30 01:09:42;;;;;;;15.07;6.88;;;-0.60;99.90;;;;;;5068704;28;20040;-80
2023/12/30 01:12:08;;;;;;;8.98;4.90;;;-0.70;99.90;;;;;;5094076;28;20034;-80
2023/12/30 01:14:34;;;;;;;8.50;4.25;;;-0.70;99.90;;;;;;5093923;28;20028;-80
2023/12/30 01:16:59;;;;;;;7.18;4.15;;;-0.70;99.90;;;;;;5094189;28;20549;-80
2023/12/30 01:19:25;;;;;;;5.47;3.30;;;-0.70;99.90;;;;;;5088535;28;20118;-79
2023/12/30 01:21:51;;;;;;;7.28;3.25;;;-0.70;99.90;;;;;;5078735;28;20027;-80
2023/12/30 01:24:16;;;;;;;5.07;2.95;;;-0.60;99.90;;;;;;5093917;28;20102;-80
2023/12/30 01:26:43;;;;;;;5.57;2.95;;;-0.60;99.90;;;;;;5075933;28;20028;-80
2023/12/30 01:29:08;;;;;;;6.72;3.38;;;-0.60;99.90;;;;;;5094025;28;20024;-80
2023/12/30 01:31:34;;;;;;;6.75;3.60;;;-0.60;99.90;;;;;;5059290;28;20032;-80
2023/12/30 01:34:00;;;;;;;7.28;3.63;;;-0.60;99.90;;;;;;5075743;28;20396;-80
2023/12/30 01:36:26;;;;;;;8.13;3.80;;;-0.60;99.90;;;;;;5070870;28;20032;-80
2023/12/30 01:38:52;;;;;;;7.80;4.07;;;-0.60;99.90;;;;;;5065527;28;20028;-80
2023/12/30 01:41:19;;;;;;;6.85;3.88;;;-0.70;99.90;;;;;;5042480;28;20053;-80
2023/12/30 01:43:45;;;;;;;9.82;3.78;;;-0.70;99.90;;;;;;5093042;28;20016;-80
2023/12/30 01:46:12;;;;;;;6.03;3.50;;;-0.70;99.90;;;;;;5093586;28;20031;-80
2023/12/30 01:48:38;;;;;;;6.63;3.60;;;-0.80;99.90;;;;;;5075389;28;20039;-80
2023/12/30 01:51:07;;;;;;;8.32;3.60;;;-0.80;99.90;;;;;;5080504;28;20031;-80
2023/12/30 01:53:36;;;;;;;7.38;3.30;;;-0.80;99.90;;;;;;5081283;28;20588;-79
2023/12/30 01:56:02;;;;;;;7.25;3.63;;;-0.80;99.90;;;;;;5075507;28;20036;-80
2023/12/30 01:58:29;;;;;;;7.70;3.92;;;-0.90;99.90;;;;;;5093388;28;20028;-80
2023/12/30 02:00:56;;;;;;;4.95;3.25;;;-0.90;99.90;;;;;;5075620;28;20032;-80
2023/12/30 02:03:22;;;;;;;6.90;3.42;;;-0.80;99.90;;;;;;5093636;28;20043;-79
2023/12/30 02:05:50;;;;;;;6.25;3.40;;;-0.80;99.90;;;;;;5059036;28;20498;-80
2023/12/30 02:08:17;;;;;;;9.20;4.72;;;-0.80;99.90;;;;;;5072203;28;20122;-79
2023/12/30 02:10:43;;;;;;;6.28;3.10;;;-0.80;99.90;;;;;;5113820;28;20042;-79
2023/12/30 02:13:10;;;;;;;6.20;2.88;;;-0.90;99.90;;;;;;5114030;28;20045;-80
2023/12/30 02:15:36;;;;;;;4.25;2.65;;;-0.90;99.90;;;;;;5095739;28;20032;-80
2023/12/30 02:18:02;;;;;;;4.47;2.40;;;-1.00;99.90;;;;;;5095155;28;20027;-80
2023/12/30 02:20:30;;;;;;;5.47;2.72;;;-1.10;99.90;;;;;;5095897;28;20052;-80
2023/12/30 02:22:56;;;;;;;5.57;2.63;;;-1.10;99.90;;;;;;5105179;28;20031;-79
2023/12/30 02:25:22;;;;;;;6.18;2.80;;;-1.10;99.90;;;;;;5096647;28;20091;-80
2023/12/30 02:27:47;;;;;;;6.63;3.28;;;-1.10;99.90;;;;;;5093489;28;20103;-80
2023/12/30 02:30:14;;;;;;;5.60;2.80;;;-1.10;99.90;;;;;;5093392;28;20055;-79
2023/12/30 02:32:40;;;;;;;5.80;2.97;;;-1.10;99.90;;;;;;5093432;28;20149;-80
2023/12/30 02:35:07;;;;;;;7.95;3.42;;;-1.10;99.90;;;;;;5081042;28;20028;-79
2023/12/30 02:37:32;;;;;;;8.45;3.83;;;-1.10;99.90;;;;;;5072740;28;20044;-79
2023/12/30 02:39:58;;;;;;;7.43;3.70;;;-1.20;99.90;;;;;;5104244;28;20384;-79
2023/12/30 02:42:24;;;;;;;7.13;3.50;;;-1.20;99.90;;;;;;5091734;28;20025;-79
2023/12/30 02:44:49;;;;;;;8.20;4.32;;;-1.10;99.90;;;;;;5074542;28;20024;-79
2023/12/30 02:47:15;;;;;;;7.22;4.00;;;-1.10;99.90;;;;;;5075018;28;20024;-79
2023/12/30 02:49:45;;;;;;;7.85;4.00;;;-1.10;99.90;;;;;;5075352;28;20047;-79
2023/12/30 02:52:11;;;;;;;5.43;3.10;;;-1.10;99.90;;;;;;5093788;28;20024;-79
2023/12/30 02:54:37;;;;;;;6.82;3.92;;;-1.00;99.90;;;;;;5094221;28;20028;-79
2023/12/30 02:57:04;;;;;;;12.23;5.45;;;-1.00;99.90;;;;;;5078876;28;20058;-79
2023/12/30 02:59:30;;;;;;;8.85;4.80;;;-1.10;99.90;;;;;;5096732;28;20101;-79
2023/12/30 03:01:56;;;;;;;23.50;8.98;;;-1.10;99.90;;;;;;5078792;28;20499;-80
2023/12/30 03:04:22;;;;;;;17.95;8.77;;;-1.20;99.90;;;;;;5090349;28;20108;-79
2023/12/30 03:06:48;;;;;;;23.58;9.95;;;-1.20;99.90;;;;;;5058704;28;20017;-79
2023/12/30 03:09:14;;;;;;;20.52;9.98;;;-1.20;99.90;;;;;;5061914;28;20040;-79
2023/12/30 03:11:40;;;;;;;29.52;13.73;;;-1.20;99.90;;;;;;5116986;28;20069;-79
2023/12/30 03:14:06;;;;;;;27.60;12.18;;;-1.10;99.90;;;;;;5101683;28;20016;-80
2023/12/30 03:16:32;;;;;;;18.00;9.10;;;-1.10;99.90;;;;;;5097070;28;20035;-79
2023/12/30 03:18:58;;;;;;;17.10;8.02;;;-1.10;99.90;;;;;;5096691;28;20478;-80
2023/12/30 03:21:24;;;;;;;9.60;4.78;;;-1.00;99.90;;;;;;5077947;28;20048;-79
2023/12/30 03:23:50;;;;;;;7.78;4.57;;;-1.00;99.90;;;;;;5096647;28;20486;-79
2023/12/30 03:26:16;;;;;;;8.18;4.30;;;-1.00;99.90;;;;;;5096628;28;20033;-79
2023/12/30 03:28:43;;;;;;;7.78;4.35;;;-1.10;99.90;;;;;;5077946;28;20035;-79
2023/12/30 03:31:27;;;;;;;8.48;3.60;;;-1.10;99.90;;;;;;5096663;28;20115;-79
2023/12/30 03:33:54;;;;;;;6.43;3.40;;;-1.10;99.90;;;;;;5096067;28;20032;-79
2023/12/30 03:36:20;;;;;;;8.48;3.65;;;-1.10;99.90;;;;;;5077729;28;20030;-79
2023/12/30 03:38:50;;;;;;;7.85;3.95;;;-1.10;99.90;;;;;;5077371;28;20033;-79
2023/12/30 03:41:17;;;;;;;5.97;3.60;;;-1.00;99.90;;;;;;5096051;28;20024;-79
2023/12/30 03:43:43;;;;;;;7.20;3.50;;;-1.00;99.90;;;;;;5077812;28;20028;-79
2023/12/30 03:46:08;;;;;;;7.03;3.45;;;-1.00;99.90;;;;;;5077884;28;20354;-79
2023/12/30 03:48:34;;;;;;;7.28;3.90;;;-1.00;99.90;;;;;;5077840;28;20032;-79
2023/12/30 03:51:00;;;;;;;7.15;3.17;;;-1.00;99.90;;;;;;5077815;28;20032;-79
2023/12/30 03:53:26;;;;;;;5.82;3.03;;;-0.90;99.90;;;;;;5061146;28;20510;-79
2023/12/30 03:55:51;;;;;;;6.45;3.40;;;-0.90;99.90;;;;;;5078141;28;20506;-78
2023/12/30 03:58:17;;;;;;;9.48;4.57;;;-0.90;99.90;;;;;;5060646;28;20032;-79
2023/12/30 04:00:43;;;;;;;9.70;5.13;;;-0.90;99.90;;;;;;5077759;28;20127;-79
2023/12/30 04:03:08;;;;;;;8.05;4.38;;;-0.90;99.90;;;;;;5077657;28;20065;-79
2023/12/30 04:05:34;;;;;;;8.07;4.20;;;-0.90;99.90;;;;;;5095079;28;20036;-79
2023/12/30 04:08:00;;;;;;;6.32;3.78;;;-1.00;99.90;;;;;;5076985;28;20043;-79
2023/12/30 04:10:26;;;;;;;8.07;3.50;;;-1.00;99.90;;;;;;5095548;28;20028;-79
2023/12/30 04:12:51;;;;;;;9.30;3.88;;;-1.00;99.90;;;;;;5077162;28;20537;-79
2023/12/30 04:15:17;;;;;;;6.95;3.80;;;-1.00;99.90;;;;;;5077245;28;20047;-79
2023/12/30 04:17:43;;;;;;;7.32;4.20;;;-1.00;99.90;;;;;;5095196;28;20059;-80
2023/12/30 04:20:09;;;;;;;8.60;3.92;;;-1.00;99.90;;;;;;5115868;28;20024;-80
2023/12/30 04:22:35;;;;;;;8.18;3.70;;;-1.00;99.90;;;;;;5094558;28;20017;-80
2023/12/30 04:25:02;;;;;;;6.25;3.42;;;-1.00;99.90;;;;;;5060859;28;20442;-80
2023/12/30 04:27:28;;;;;;;8.73;3.55;;;-1.00;99.90;;;;;;5061690;28;20103;-79
2023/12/30 04:29:53;;;;;;;6.05;2.85;;;-1.10;99.90;;;;;;5061094;28;20066;-79
2023/12/30 04:32:24;;;;;;;5.90;3.38;;;-1.10;99.90;;;;;;5067789;28;20044;-79
2023/12/30 04:34:50;;;;;;;6.07;3.08;;;-1.10;99.90;;;;;;5082633;28;20020;-80
2023/12/30 04:37:16;;;;;;;7.65;4.00;;;-1.10;99.90;;;;;;5078053;28;20077;-80
2023/12/30 04:39:42;;;;;;;5.90;2.95;;;-1.20;99.90;;;;;;5061271;28;20032;-80
2023/12/30 04:42:07;;;;;;;5.00;3.00;;;-1.20;99.90;;;;;;5060968;28;20024;-79
2023/12/30 04:44:33;;;;;;;5.03;3.00;;;-1.20;99.90;;;;;;5095999;28;20022;-79
2023/12/30 04:46:59;;;;;;;9.13;4.47;;;-1.10;99.90;;;;;;5096089;28;20090;-79
2023/12/30 04:49:24;;;;;;;7.95;4.20;;;-1.10;99.90;;;;;;5061696;28;20036;-79
2023/12/30 04:51:50;;;;;;;8.70;4.63;;;-1.20;99.90;;;;;;5077506;28;20366;-79
2023/12/30 04:54:16;;;;;;;9.43;4.45;;;-1.20;99.90;;;;;;5077407;28;20085;-79
2023/12/30 04:56:41;;;;;;;6.50;3.80;;;-1.20;99.90;;;;;;5077417;28;20476;-80
2023/12/30 04:59:09;;;;;;;5.28;2.83;;;-1.20;99.90;;;;;;5077597;28;20397;-80
2023/12/30 05:01:35;;;;;;;5.25;2.90;;;-1.20;99.90;;;;;;5095567;28;20094;-80
2023/12/30 05:04:02;;;;;;;4.93;3.05;;;-1.20;99.90;;;;;;5077103;28;20039;-79
2023/12/30 05:06:29;;;;;;;5.75;2.83;;;-1.20;99.90;;;;;;5095413;28;20035;-80
2023/12/30 05:08:55;;;;;;;4.05;2.47;;;-1.30;99.90;;;;;;5095072;28;20488;-80
2023/12/30 05:11:23;;;;;;;4.55;2.38;;;-1.30;99.90;;;;;;5095053;28;20024;-80
2023/12/30 05:13:49;;;;;;;5.03;2.33;;;-1.30;99.90;;;;;;5095459;28;20036;-80
2023/12/30 05:16:15;;;;;;;6.40;2.95;;;-1.30;99.90;;;;;;5094984;28;20032;-80
2023/12/30 05:18:41;;;;;;;6.65;3.03;;;-1.40;99.90;;;;;;5059263;28;20028;-80
2023/12/30 05:21:16;;;;;;;7.43;3.67;;;-1.40;99.90;;;;;;5094956;28;20381;-79
2023/12/30 05:23:43;;;;;;;9.38;4.68;;;-1.40;99.90;;;;;;5084156;28;20028;-80
2023/12/30 05:26:12;;;;;;;10.15;5.43;;;-1.40;99.90;;;;;;5080268;28;20544;-79
2023/12/30 05:28:37;;;;;;;7.88;4.50;;;-1.40;99.90;;;;;;5097764;28;20119;-79
2023/12/30 05:31:03;;;;;;;7.25;3.97;;;-1.40;99.90;;;;;;5100516;28;20059;-79
2023/12/30 05:33:29;;;;;;;6.35;3.42;;;-1.40;99.90;;;;;;5076529;28;20085;-79
2023/12/30 05:35:55;;;;;;;5.28;2.70;;;-1.40;99.90;;;;;;5077182;28;20032;-79
2023/12/30 05:38:21;;;;;;;6.03;2.88;;;-1.40;99.90;;;;;;5094876;28;20418;-79
2023/12/30 05:40:47;;;;;;;5.70;2.50;;;-1.30;99.90;;;;;;5094476;28;20024;-79
2023/12/30 05:43:12;;;;;;;4.97;3.00;;;-1.40;99.90;;;;;;5094727;28;20545;-79
2023/12/30 05:45:40;;;;;;;4.90;2.80;;;-1.40;99.90;;;;;;5077112;28;20016;-79
2023/12/30 05:48:06;;;;;;;4.55;2.72;;;-1.40;99.90;;;;;;5094445;28;20094;-79
2023/12/30 05:50:32;;;;;;;5.95;2.95;;;-1.40;99.90;;;;;;5076548;28;20025;-80
2023/12/30 05:52:59;;;;;;;4.85;2.63;;;-1.40;99.90;;;;;;5095773;28;20032;-80
2023/12/30 05:55:24;;;;;;;6.43;3.00;;;-1.40;99.90;;;;;;5097537;28;20081;-79
2023/12/30 05:57:50;;;;;;;7.35;3.65;;;-1.40;99.90;;;;;;5060019;28;20028;-79
2023/12/30 06:00:19;;;;;;;8.20;4.32;;;-1.50;99.90;;;;;;5076508;28;20020;-79
2023/12/30 06:02:44;;;;;;;6.75;3.60;;;-1.50;99.90;;;;;;5094844;28;20023;-80
2023/12/30 06:05:10;;;;;;;7.53;4.18;;;-1.60;99.90;;;;;;5059713;28;20122;-80
2023/12/30 06:07:38;;;;;;;6.55;3.50;;;-1.60;99.90;;;;;;5076457;28;20427;-80
2023/12/30 06:10:05;;;;;;;9.73;4.05;;;-1.60;99.90;;;;;;5076481;28;20500;-80
2023/12/30 06:12:31;;;;;;;7.40;3.53;;;-1.60;99.90;;;;;;5094824;28;20024;-80
2023/12/30 06:14:56;;;;;;;5.93;3.35;;;-1.60;99.90;;;;;;5076146;28;20033;-79
2023/12/30 06:17:22;;;;;;;6.15;3.10;;;-1.70;99.90;;;;;;5058667;28;20119;-79
2023/12/30 06:19:48;;;;;;;6.80;3.60;;;-1.60;99.90;;;;;;5075821;28;20029;-79
2023/12/30 06:22:14;;;;;;;8.75;4.22;;;-1.60;99.90;;;;;;5075943;28;20043;-79
2023/12/30 06:24:39;;;;;;;7.97;4.18;;;-1.60;99.90;;;;;;5105130;28;20027;-79
2023/12/30 06:27:05;;;;;;;5.78;3.40;;;-1.60;99.90;;;;;;5096036;28;20104;-79
2023/12/30 06:29:31;;;;;;;7.43;3.60;;;-1.60;99.90;;;;;;5097211;28;20077;-79
2023/12/30 06:31:56;;;;;;;6.90;3.40;;;-1.60;99.90;;;;;;5100317;28;20027;-78
2023/12/30 06:34:23;;;;;;;7.90;3.42;;;-1.60;99.90;;;;;;5101543;28;20028;-79
2023/12/30 06:36:49;;;;;;;6.15;3.40;;;-1.60;99.90;;;;;;5079267;28;20463;-79
2023/12/30 06:39:17;;;;;;;6.07;3.45;;;-1.70;99.90;;;;;;5079314;28;20020;-79
2023/12/30 06:41:43;;;;;;;5.80;3.13;;;-1.70;99.90;;;;;;5077499;28;20028;-79
2023/12/30 06:44:08;;;;;;;5.68;3.05;;;-1.70;99.90;;;;;;5078020;28;20028;-79
2023/12/30 06:46:34;;;;;;;6.45;3.65;;;-1.80;99.90;;;;;;5060573;28;20032;-79
2023/12/30 06:49:00;;;;;;;7.40;4.22;;;-1.80;99.90;;;;;;5059697;28;20396;-79
2023/12/30 06:51:27;;;;;;;9.52;5.05;;;-1.80;99.90;;;;;;5092599;28;20477;-79
2023/12/30 06:53:53;;;;;;;6.35;3.22;;;-1.80;99.90;;;;;;5071715;28;20441;-79
2023/12/30 06:56:19;;;;;;;6.45;3.10;;;-1.80;99.90;;;;;;5098299;28;20047;-79
2023/12/30 06:58:45;;;;;;;8.57;4.43;;;-1.80;99.90;;;;;;5097072;28;20028;-79
2023/12/30 07:01:12;;;;;;;9.55;4.68;;;-1.90;99.90;;;;;;5079063;28;20028;-79
2023/12/30 07:03:37;;;;;;;8.88;4.38;;;-1.90;99.90;;;;;;5062504;28;20024;-79
2023/12/30 07:06:03;;;;;;;12.38;7.00;;;-1.90;99.90;;;;;;5108975;28;20536;-79
2023/12/30 07:08:29;;;;;;;47.88;28.38;;;-2.00;99.90;;;;;;5117733;28;20081;-79
2023/12/30 07:10:55;;;;;;;46.83;30.73;;;-2.00;99.90;;;;;;5099162;28;20122;-79
2023/12/30 07:13:20;;;;;;;49.53;30.77;;;-2.00;99.90;;;;;;5054940;28;20051;-79
2023/12/30 07:15:47;;;;;;;21.67;15.70;;;-2.00;99.90;;;;;;5077664;28;20091;-79
2023/12/30 07:18:13;;;;;;;19.42;12.98;;;-2.00;99.90;;;;;;5077485;28;20039;-78
2023/12/30 07:20:38;;;;;;;15.45;9.68;;;-2.00;99.90;;;;;;5076130;28;20024;-78
2023/12/30 07:23:05;;;;;;;16.20;8.73;;;-2.00;99.90;;;;;;5078071;28;20034;-78
2023/12/30 07:25:31;;;;;;;12.77;7.75;;;-2.00;99.90;;;;;;5077087;28;20029;-79
2023/12/30 07:27:57;;;;;;;12.82;7.50;;;-2.00;99.90;;;;;;5091506;28;20024;-79
2023/12/30 07:30:23;;;;;;;11.35;7.03;;;-1.90;99.90;;;;;;5077975;28;20074;-78
2023/12/30 07:32:49;;;;;;;11.27;6.90;;;-1.90;99.90;;;;;;5061516;28;20031;-79
2023/12/30 07:35:15;;;;;;;10.55;6.40;;;-1.90;99.90;;;;;;5067702;28;20392;-78
2023/12/30 07:37:41;;;;;;;9.25;5.45;;;-1.90;99.90;;;;;;5111424;28;20021;-79
2023/12/30 07:40:10;;;;;;;8.30;5.22;;;-2.00;99.90;;;;;;5063862;28;20072;-78
2023/12/30 07:42:35;;;;;;;8.15;4.60;;;-2.00;99.90;;;;;;5060179;28;20101;-78
2023/12/30 07:45:01;;;;;;;7.03;4.28;;;-2.00;99.90;;;;;;5077948;28;20063;-79
2023/12/30 07:47:27;;;;;;;6.72;3.90;;;-2.00;99.90;;;;;;5096371;28;20481;-78
2023/12/30 07:49:52;;;;;;;7.68;4.00;;;-2.00;99.90;;;;;;5095852;28;20036;-79
2023/12/30 07:52:18;;;;;;;8.18;4.72;;;-2.00;99.90;;;;;;5060915;28;20056;-79
2023/12/30 07:54:44;;;;;;;11.35;6.88;;;-2.00;99.90;;;;;;5077468;28;20485;-79
2023/12/30 07:57:09;;;;;;;13.38;5.93;;;-2.00;99.90;;;;;;5095892;28;20477;-79
2023/12/30 07:59:35;;;;;;;9.15;5.57;;;-2.00;99.90;;;;;;5077395;28;20028;-79
2023/12/30 08:02:01;;;;;;;11.98;6.95;;;-2.00;99.90;;;;;;5077723;28;20107;-79
2023/12/30 08:04:27;;;;;;;10.82;5.43;;;-2.00;99.90;;;;;;5077741;28;20059;-79
2023/12/30 08:06:53;;;;;;;11.65;5.68;;;-2.00;99.90;;;;;;5095844;28;20119;-78
2023/12/30 08:09:19;;;;;;;12.23;6.35;;;-2.00;99.90;;;;;;5094572;28;20055;-79
2023/12/30 08:11:44;;;;;;;9.77;6.10;;;-2.00;99.90;;;;;;5077743;28;20484;-78
2023/12/30 08:14:10;;;;;;;13.77;6.30;;;-1.90;99.90;;;;;;5077662;28;20077;-79
2023/12/30 08:16:36;;;;;;;11.15;5.50;;;-1.80;99.90;;;;;;5077602;28;20035;-79
2023/12/30 08:19:05;;;;;;;9.73;5.03;;;-1.70;99.90;;;;;;5095387;28;20032;-79
2023/12/30 08:21:31;;;;;;;9.82;4.53;;;-1.60;99.90;;;;;;5077868;28;20030;-78
2023/12/30 08:23:58;;;;;;;9.10;4.50;;;-1.50;99.90;;;;;;5074503;28;20056;-79
2023/12/30 08:26:24;;;;;;;11.38;4.50;;;-1.40;99.90;;;;;;5113180;28;20069;-79
2023/12/30 08:28:51;;;;;;;8.48;4.43;;;-1.40;99.90;;;;;;5097794;28;20023;-79
2023/12/30 08:31:17;;;;;;;20.95;10.40;;;-1.30;99.90;;;;;;5097626;28;20054;-79
2023/12/30 08:33:43;;;;;;;13.45;7.07;;;-1.30;99.90;;;;;;5088457;28;20441;-79
2023/12/30 08:36:09;;;;;;;13.73;7.63;;;-1.20;99.90;;;;;;5095099;28;20031;-79
2023/12/30 08:38:35;;;;;;;19.90;10.52;;;-1.10;99.90;;;;;;5095044;28;20032;-79
2023/12/30 08:41:02;;;;;;;11.05;5.75;;;-1.00;99.90;;;;;;5099234;28;20071;-79
2023/12/30 08:43:28;;;;;;;18.98;8.25;;;-0.90;99.90;;;;;;5078589;28;20024;-79
2023/12/30 08:45:53;;;;;;;19.52;8.82;;;-0.80;99.90;;;;;;5078776;28;20044;-79
2023/12/30 08:48:19;;;;;;;19.27;8.82;;;-0.70;99.90;;;;;;5056583;28;20134;-79
2023/12/30 08:50:45;;;;;;;15.88;7.05;;;-0.60;99.90;;;;;;5094998;28;20031;-79
2023/12/30 08:53:11;;;;;;;13.63;6.25;;;-0.60;99.90;;;;;;5076663;28;20038;-79
2023/12/30 08:55:37;;;;;;;11.30;5.13;;;-0.50;99.90;;;;;;5076693;28;20039;-79
2023/12/30 08:58:03;;;;;;;9.23;4.75;;;-0.50;99.90;;;;;;5077195;28;20036;-79
2023/12/30 09:00:29;;;;;;;8.82;4.70;;;-0.50;99.90;;;;;;5044126;28;20430;-79
2023/12/30 09:02:55;;;;;;;10.82;6.10;;;-0.40;99.90;;;;;;5095254;28;20030;-79
2023/12/30 09:05:21;;;;;;;10.25;5.38;;;-0.40;99.90;;;;;;5095073;28;20043;-79
2023/12/30 09:07:49;;;;;;;10.15;5.72;;;-0.30;99.90;;;;;;5070723;28;20056;-79
2023/12/30 09:10:15;;;;;;;29.50;13.70;;;-0.30;99.90;;;;;;5074461;28;20055;-78
2023/12/30 09:12:41;;;;;;;26.13;13.73;;;-0.20;99.90;;;;;;5084393;28;20107;-79
2023/12/30 09:15:07;;;;;;;14.25;7.78;;;-0.10;99.90;;;;;;5076975;28;20059;-79
2023/12/30 09:17:33;;;;;;;15.27;7.40;;;-0.10;99.90;;;;;;5043995;28;20073;-79
2023/12/30 09:19:58;;;;;;;15.60;7.03;;;0.00;99.90;;;;;;5094472;28;20039;-79
2023/12/30 09:22:24;;;;;;;9.10;5.32;;;0.10;99.90;;;;;;5094834;28;20399;-80
2023/12/30 09:24:50;;;;;;;10.57;5.50;;;0.20;99.90;;;;;;5077223;28;20577;-79
2023/12/30 09:27:15;;;;;;;10.65;5.85;;;0.20;99.90;;;;;;5094789;28;20377;-78
2023/12/30 09:29:41;;;;;;;12.23;6.93;;;0.20;99.90;;;;;;5098022;28;20081;-80
2023/12/30 09:32:07;;;;;;;13.75;8.48;;;0.30;99.90;;;;;;5081204;28;20027;-79
2023/12/30 09:34:33;;;;;;;26.20;15.52;;;0.30;99.90;;;;;;5096433;28;20044;-80
2023/12/30 09:36:58;;;;;;;26.85;15.35;;;0.40;99.90;;;;;;5060413;28;20028;-80
2023/12/30 09:39:24;;;;;;;20.85;11.70;;;0.40;99.90;;;;;;5060201;28;20028;-79
2023/12/30 09:41:51;;;;;;;18.15;8.27;;;0.50;99.90;;;;;;5096335;28;20067;-79
2023/12/30 09:44:17;;;;;;;15.50;7.60;;;0.50;99.90;;;;;;5089188;28;20487;-80
2023/12/30 09:46:44;;;;;;;13.27;6.97;;;0.60;99.90;;;;;;5080371;28;20028;-80
2023/12/30 09:49:13;;;;;;;12.80;6.85;;;0.60;99.90;;;;;;5080120;28;20032;-80
2023/12/30 09:51:38;;;;;;;10.57;6.10;;;0.60;99.90;;;;;;5097420;28;20077;-79
2023/12/30 09:54:04;;;;;;;13.32;6.53;;;0.60;99.90;;;;;;5104652;28;20032;-80
2023/12/30 09:56:31;;;;;;;9.15;5.53;;;0.60;99.90;;;;;;5077854;28;20028;-81
2023/12/30 09:58:57;;;;;;;9.75;5.75;;;0.70;99.90;;;;;;5100205;28;20019;-80
2023/12/30 10:01:24;;;;;;;11.55;5.85;;;0.70;99.90;;;;;;5102194;28;20040;-80
2023/12/30 10:03:49;;;;;;;13.50;5.90;;;0.70;99.90;;;;;;5109611;28;20020;-80
2023/12/30 10:06:20;;;;;;;10.23;5.80;;;0.80;99.90;;;;;;5080963;28;20074;-80
2023/12/30 10:08:48;;;;;;;9.20;5.50;;;0.80;99.90;;;;;;5099233;28;20449;-80
2023/12/30 10:11:15;;;;;;;10.15;5.72;;;0.90;99.90;;;;;;5064855;28;20036;-80
2023/12/30 10:13:40;;;;;;;12.18;6.97;;;0.90;99.90;;;;;;5063890;28;20051;-80
2023/12/30 10:16:06;;;;;;;10.68;6.00;;;0.90;99.90;;;;;;5081158;28;20032;-80
2023/12/30 10:18:32;;;;;;;11.50;6.45;;;1.00;99.90;;;;;;5090962;28;20059;-80
2023/12/30 10:20:58;;;;;;;13.20;6.30;;;1.00;99.90;;;;;;5100641;28;20485;-80
2023/12/30 10:23:27;;;;;;;9.65;5.40;;;1.10;99.90;;;;;;5063079;28;20024;-80
2023/12/30 10:25:53;;;;;;;9.68;5.88;;;1.10;99.90;;;;;;5064289;28;20032;-80
2023/12/30 10:28:19;;;;;;;12.00;6.18;;;1.20;99.90;;;;;;5080762;28;20559;-80
2023/12/30 10:30:47;;;;;;;10.73;5.18;;;1.20;99.90;;;;;;5099494;28;20024;-80
2023/12/30 10:33:14;;;;;;;9.65;4.32;;;1.30;99.90;;;;;;5064338;28;20752;-80
2023/12/30 10:35:46;;;;;;;7.85;3.88;;;1.30;99.90;;;;;;5079843;28;20480;-80
2023/12/30 10:38:13;;;;;;;7.32;4.32;;;1.40;99.90;;;;;;5072874;28;20116;-79
2023/12/30 10:40:40;;;;;;;5.65;3.92;;;1.50;99.90;;;;;;5079872;28;20069;-80
2023/12/30 10:43:06;;;;;;;6.43;3.80;;;1.60;99.90;;;;;;5079153;28;20035;-80
2023/12/30 10:45:32;;;;;;;6.30;3.60;;;1.60;99.90;;;;;;5080411;28;20028;-80
2023/12/30 10:48:00;;;;;;;6.70;4.25;;;1.70;99.90;;;;;;5098533;28;20035;-80
2023/12/30 10:50:26;;;;;;;8.85;5.10;;;1.70;99.90;;;;;;5113808;28;20023;-80
2023/12/30 10:53:27;;;;;;;7.95;4.75;;;1.80;99.90;;;;;;5081904;28;20034;-80
2023/12/30 10:55:55;;;;;;;7.10;4.15;;;1.90;99.90;;;;;;5094645;28;20020;-80
2023/12/30 10:58:25;;;;;;;11.43;5.38;;;2.00;99.90;;;;;;5094767;28;20035;-80
2023/12/30 11:00:57;;;;;;;9.10;5.70;;;2.10;99.90;;;;;;5096036;28;20016;-81
2023/12/30 11:03:24;;;;;;;12.05;6.50;;;2.20;99.90;;;;;;5077447;28;20019;-80
2023/12/30 11:06:13;;;;;;;11.27;7.07;;;2.30;99.90;;;;;;5082139;28;20377;-80
2023/12/30 11:08:43;;;;;;;12.02;6.90;;;2.40;99.90;;;;;;5036049;28;20040;-80
2023/12/30 11:11:17;;;;;;;9.63;6.70;;;2.40;99.90;;;;;;5076043;28;20484;-81
2023/12/30 11:13:43;;;;;;;11.25;6.93;;;2.50;99.90;;;;;;5075982;28;20055;-80
2023/12/30 11:16:17;;;;;;;11.88;7.43;;;2.50;99.90;;;;;;5058937;28;20024;-80
2023/12/30 11:18:53;;;;;;;12.30;7.93;;;2.60;99.90;;;;;;5063749;28;20024;-80
2023/12/30 11:21:42;;;;;;;11.70;7.40;;;2.60;99.90;;;;;;5098193;28;20052;-80
2023/12/30 11:24:11;;;;;;;12.40;7.03;;;2.70;99.90;;;;;;5059736;28;20037;-80
2023/12/30 11:26:41;;;;;;;10.30;6.65;;;2.80;99.90;;;;;;5060177;28;20025;-80
2023/12/30 11:29:12;;;;;;;11.02;6.90;;;2.90;99.90;;;;;;5078776;28;20025;-80
2023/12/30 11:31:41;;;;;;;11.13;6.72;;;3.00;99.90;;;;;;5043909;28;20033;-79
2023/12/30 11:34:07;;;;;;;8.05;5.53;;;3.00;99.90;;;;;;5061245;28;20025;-81
2023/12/30 11:36:33;;;;;;;8.80;5.82;;;3.10;99.90;;;;;;5060905;28;20059;-80
2023/12/30 11:39:00;;;;;;;7.25;4.80;;;3.10;99.90;;;;;;5089653;28;20028;-81
2023/12/30 11:41:28;;;;;;;8.60;5.13;;;3.20;99.90;;;;;;5079931;28;20505;-81
2023/12/30 11:43:58;;;;;;;6.90;4.82;;;3.20;99.90;;;;;;5078787;28;20031;-81
2023/12/30 11:46:27;;;;;;;6.82;5.00;;;3.20;99.90;;;;;;5079205;28;20093;-81
2023/12/30 11:48:53;;;;;;;8.90;4.97;;;3.30;99.90;;;;;;5073551;28;20036;-81
2023/12/30 11:51:23;;;;;;;10.98;4.25;;;3.40;99.90;;;;;;5079387;28;20032;-81
2023/12/30 11:53:49;;;;;;;7.72;4.38;;;3.50;99.90;;;;;;5079132;28;20028;-81
2023/12/30 11:56:16;;;;;;;7.55;5.15;;;3.60;99.90;;;;;;5080818;28;20600;-81
2023/12/30 11:58:46;;;;;;;10.10;4.97;;;3.70;99.90;;;;;;5061430;28;20032;-81
2023/12/30 12:01:12;;;;;;;8.98;4.50;;;3.80;99.90;;;;;;5078861;28;20439;-81
2023/12/30 12:03:39;;;;;;;6.30;4.13;;;3.90;99.90;;;;;;5098492;28;20394;-82
2023/12/30 12:06:07;;;;;;;8.70;4.30;;;3.90;99.90;;;;;;5064486;28;20028;-82
2023/12/30 12:08:33;;;;;;;5.60;3.70;;;4.00;99.90;;;;;;5096930;28;20043;-81
2023/12/30 12:10:59;;;;;;;10.05;3.92;;;4.00;99.90;;;;;;5078870;28;20032;-82
2023/12/30 12:13:26;;;;;;;5.68;3.80;;;4.00;99.90;;;;;;5079445;28;20484;-81
2023/12/30 12:15:54;;;;;;;5.32;3.63;;;4.10;99.90;;;;;;5096682;28;20076;-82
2023/12/30 12:18:20;;;;;;;6.68;3.55;;;4.10;99.90;;;;;;5078732;28;20016;-82
2023/12/30 12:20:47;;;;;;;8.05;4.07;;;4.10;99.90;;;;;;5078455;28;20366;-82
2023/12/30 12:23:13;;;;;;;8.82;3.67;;;4.20;99.90;;;;;;5096380;28;20044;-82
2023/12/30 12:25:42;;;;;;;10.65;4.20;;;4.30;99.90;;;;;;5096554;28;20024;-82
2023/12/30 12:28:16;;;;;;;6.28;3.83;;;4.40;99.90;;;;;;5062615;28;20031;-82
2023/12/30 12:30:43;;;;;;;6.50;3.50;;;4.40;99.90;;;;;;5105414;28;20023;-81
2023/12/30 12:33:13;;;;;;;9.20;4.70;;;4.60;99.90;;;;;;5078556;28;20055;-82
2023/12/30 12:35:39;;;;;;;8.02;4.35;;;4.60;99.90;;;;;;5096722;28;20066;-82
2023/12/30 12:38:05;;;;;;;6.45;4.10;;;4.70;99.90;;;;;;5080894;28;20506;-82
2023/12/30 12:40:32;;;;;;;6.15;4.07;;;4.90;99.90;;;;;;5096940;28;20024;-82
2023/12/30 12:42:58;;;;;;;8.25;4.30;;;4.90;99.90;;;;;;5062715;28;20025;-82